Time;durP1;ratioP1;P1;durP2;ratioP2;P2;SDS_P1;SDS_P2;PMS_P1;PMS_P2;Temp;Humidity;BMP_temperature;BMP_pressure;BME280_temperature;BME280_humidity;BME280_pressure;Samples;Min_cycle;Max_cycle;Signal;HPM_P1;HPM_P2
2021/07/04 00:01:03;;;;;;;9.88;6.22;;;;;;;18.96;77.01;99087.03;4823790;29;20046;-58
2021/07/04 00:03:28;;;;;;;10.55;6.13;;;;;;;18.99;76.74;99080.72;4829566;29;20477;-58
2021/07/04 00:05:54;;;;;;;16.40;6.30;;;;;;;19.03;76.28;99090.03;4822375;29;20141;-58
2021/07/04 00:08:23;;;;;;;10.55;5.60;;;;;;;19.07;76.50;99088.00;4789644;29;20085;-57
2021/07/04 00:11:00;;;;;;;14.35;5.63;;;;;;;19.12;76.55;99091.09;4826044;29;20050;-59
2021/07/04 00:13:29;;;;;;;13.30;5.63;;;;;;;19.15;76.41;99091.72;4814555;29;20042;-59
2021/07/04 00:15:55;;;;;;;10.00;5.88;;;;;;;19.19;76.25;99102.84;4824576;29;20138;-57
2021/07/04 00:18:24;;;;;;;10.55;5.90;;;;;;;19.20;76.26;99094.84;4784612;29;20527;-59
2021/07/04 00:20:50;;;;;;;15.15;5.15;;;;;;;19.24;76.15;99098.06;4801094;29;20042;-60
2021/07/04 00:23:17;;;;;;;10.50;5.20;;;;;;;19.26;76.17;99098.78;4808600;29;20046;-59
2021/07/04 00:25:44;;;;;;;13.43;5.93;;;;;;;19.28;75.86;99102.13;4839626;29;20038;-59
2021/07/04 00:28:10;;;;;;;12.13;6.10;;;;;;;19.28;75.60;99102.97;4828447;29;20042;-59
2021/07/04 00:30:36;;;;;;;13.95;5.72;;;;;;;19.29;75.94;99101.16;4812978;29;20046;-58
2021/07/04 00:33:02;;;;;;;12.63;6.13;;;;;;;19.33;75.79;99102.59;4821737;29;20050;-58
2021/07/04 00:35:29;;;;;;;15.02;5.97;;;;;;;19.32;75.90;99095.63;4791634;29;20091;-58
2021/07/04 00:38:05;;;;;;;12.25;5.43;;;;;;;19.34;75.34;99096.38;4767949;29;20030;-60
2021/07/04 00:40:30;;;;;;;9.68;5.07;;;;;;;19.32;75.26;99096.47;4818843;29;20045;-57
2021/07/04 00:42:56;;;;;;;13.02;5.88;;;;;;;19.31;74.92;99089.53;4803527;29;20054;-58
2021/07/04 00:45:25;;;;;;;13.02;5.22;;;;;;;19.34;74.79;99097.19;4821844;29;20050;-57
2021/07/04 00:47:51;;;;;;;8.63;5.38;;;;;;;19.34;74.43;99105.13;5279677;24;20173;-58
2021/07/04 00:50:21;;;;;;;10.95;4.40;;;;;;;19.35;74.44;99106.78;4843361;29;20526;-58
2021/07/04 00:52:47;;;;;;;5.80;4.75;;;;;;;19.35;74.35;99109.44;4849792;29;20128;-58
2021/07/04 00:55:15;;;;;;;8.00;3.95;;;;;;;19.35;74.16;99105.94;4822484;29;20179;-59
2021/07/04 00:57:44;;;;;;;6.50;3.60;;;;;;;19.37;73.51;99109.28;4847844;29;20139;-57
2021/07/04 01:00:13;;;;;;;5.82;3.72;;;;;;;19.37;73.22;99107.50;4823048;29;20049;-58
2021/07/04 01:02:39;;;;;;;;;;;;;;;19.37;73.25;99104.84;4823593;29;20054;-58
2021/07/04 01:05:14;;;;;;;7.50;4.55;;;;;;;19.37;73.26;99110.13;4821961;29;19924;-58
2021/07/04 01:07:41;;;;;;;4.72;3.75;;;;;;;19.37;73.04;99109.28;4830679;29;20058;-58
2021/07/04 01:10:11;;;;;;;5.68;3.67;;;;;;;19.37;72.84;99114.56;4814692;29;20057;-57
2021/07/04 01:12:38;;;;;;;9.00;4.40;;;;;;;19.39;73.23;99117.94;4806001;29;20054;-58
2021/07/04 01:15:06;;;;;;;4.87;3.60;;;;;;;19.39;73.44;99115.28;4837854;29;20187;-57
2021/07/04 01:17:34;;;;;;;9.15;3.45;;;;;;;19.39;73.20;99113.50;4822090;29;20314;-57
2021/07/04 01:20:00;;;;;;;7.63;3.10;;;;;;;19.40;73.07;99114.34;4824714;29;20100;-58
2021/07/04 01:22:30;;;;;;;8.00;4.13;;;;;;;19.41;73.28;99110.75;4820523;29;20148;-57
2021/07/04 01:24:56;;;;;;;5.50;4.05;;;;;;;19.43;73.28;99114.06;4816223;29;20049;-58
2021/07/04 01:27:22;;;;;;;7.57;4.88;;;;;;;19.43;73.33;99109.66;4820163;29;20521;-58
2021/07/04 01:29:48;;;;;;;9.77;5.70;;;;;;;19.43;73.28;99109.66;4836668;29;20041;-59
2021/07/04 01:32:14;;;;;;;13.20;5.55;;;;;;;19.45;73.30;99117.47;4837423;29;20049;-58
2021/07/04 01:34:40;;;;;;;6.70;5.03;;;;;;;19.44;73.22;99116.63;4825448;29;20045;-58
2021/07/04 01:37:06;;;;;;;8.60;4.90;;;;;;;19.43;73.25;99119.34;4818319;29;20133;-58
2021/07/04 01:39:33;;;;;;;6.90;3.85;;;;;;;19.44;73.10;99131.56;4817733;29;20053;-58
2021/07/04 01:42:04;;;;;;;5.78;4.20;;;;;;;19.43;73.22;99117.56;4835010;29;20053;-58
2021/07/04 01:44:30;;;;;;;6.32;3.58;;;;;;;19.42;72.96;99117.66;4822396;29;20648;-58
2021/07/04 01:46:55;;;;;;;6.03;3.78;;;;;;;19.42;72.54;99113.22;4832819;29;20120;-57
2021/07/04 01:49:26;;;;;;;6.18;4.00;;;;;;;19.43;72.53;99112.28;4817672;29;20129;-58
2021/07/04 01:51:53;;;;;;;6.60;3.42;;;;;;;19.45;72.49;99118.31;4838148;29;20102;-60
2021/07/04 01:54:27;;;;;;;8.30;3.45;;;;;;;19.47;72.86;99115.53;4820867;29;20053;-58
2021/07/04 01:56:53;;;;;;;5.10;3.42;;;;;;;19.47;73.03;99110.25;4842741;29;20045;-57
2021/07/04 01:59:19;;;;;;;7.43;3.42;;;;;;;19.47;72.90;99112.09;4821904;29;20167;-59
2021/07/04 02:02:14;;;;;;;6.72;3.40;;;;;;;19.48;73.10;99111.09;4831326;29;20421;-58
2021/07/04 02:04:42;;;;;;;8.07;3.85;;;;;;;19.48;72.66;99116.38;4824467;29;20053;-62
2021/07/04 02:07:18;;;;;;;4.43;3.38;;;;;;;19.47;72.76;99123.44;4833121;29;20537;-58
2021/07/04 02:09:50;;;;;;;7.38;3.55;;;;;;;19.49;72.69;99123.34;4836782;29;20058;-59
2021/07/04 02:12:19;;;;;;;5.97;3.00;;;;;;;19.51;72.55;99129.31;4839019;29;20046;-59
2021/07/04 02:14:47;;;;;;;5.70;3.40;;;;;;;19.50;72.53;99127.66;4822607;29;20432;-58
2021/07/04 02:17:23;;;;;;;8.40;4.15;;;;;;;19.50;72.79;99130.28;4812314;29;20050;-56
2021/07/04 02:20:29;;;;;;;6.18;4.00;;;;;;;19.52;73.03;99128.38;4820807;29;20042;-58
2021/07/04 02:23:36;;;;;;;7.35;4.18;;;;;;;19.52;73.20;99129.22;4818904;29;20138;-58
2021/07/04 02:26:24;;;;;;;6.45;3.50;;;;;;;19.51;73.15;99138.09;4835522;29;20046;-58
2021/07/04 02:28:54;;;;;;;7.88;4.00;;;;;;;19.51;73.61;99145.16;4815568;29;20049;-60
2021/07/04 02:31:49;;;;;;;5.50;3.13;;;;;;;19.53;73.34;99145.84;4834897;29;20409;-58
2021/07/04 02:34:19;;;;;;;3.80;3.03;;;;;;;19.52;73.24;99134.50;4821277;29;20041;-58
2021/07/04 02:36:57;;;;;;;6.18;3.20;;;;;;;19.51;73.22;99138.09;4827223;29;20122;-58
2021/07/04 02:39:25;;;;;;;5.93;3.50;;;;;;;19.52;73.23;99142.41;4818313;29;20053;-58
2021/07/04 02:41:57;;;;;;;5.03;3.40;;;;;;;19.53;73.18;99143.22;4815948;29;20057;-59
2021/07/04 02:44:23;;;;;;;4.55;3.05;;;;;;;19.55;73.62;99151.84;4837786;29;20448;-56
2021/07/04 02:46:49;;;;;;;4.07;3.00;;;;;;;19.54;74.09;99156.28;4841662;29;20046;-58
2021/07/04 02:49:15;;;;;;;4.45;3.15;;;;;;;19.53;74.28;99154.59;4818623;29;20567;-58
2021/07/04 02:51:44;;;;;;;4.72;3.28;;;;;;;19.56;74.39;99156.16;4821805;29;20110;-59
2021/07/04 02:54:13;;;;;;;6.25;3.08;;;;;;;19.53;74.07;99157.22;4813874;29;20140;-57
2021/07/04 02:56:39;;;;;;;3.80;2.60;;;;;;;19.52;73.68;99155.59;4817394;29;20042;-58
2021/07/04 02:59:06;;;;;;;7.78;3.55;;;;;;;19.52;73.82;99162.66;4803329;29;20046;-58
2021/07/04 03:01:32;;;;;;;5.43;2.80;;;;;;;19.52;74.02;99160.84;4822401;29;20057;-57
2021/07/04 03:03:57;;;;;;;4.90;2.80;;;;;;;19.51;74.24;99163.59;4841594;29;20054;-58
2021/07/04 03:06:24;;;;;;;4.72;3.10;;;;;;;19.52;74.49;99165.28;4820733;29;20054;-58
2021/07/04 03:08:51;;;;;;;5.45;3.50;;;;;;;19.51;74.38;99164.44;4819156;29;20102;-58
2021/07/04 03:11:19;;;;;;;6.80;3.10;;;;;;;19.51;74.52;99166.25;4815325;29;20054;-58
2021/07/04 03:13:46;;;;;;;6.97;3.25;;;;;;;19.52;74.36;99168.78;4817079;29;20057;-61
2021/07/04 03:16:12;;;;;;;9.20;2.60;;;;;;;19.51;74.41;99156.53;4804336;29;20426;-58
2021/07/04 03:18:40;;;;;;;6.13;4.05;;;;;;;19.52;74.32;99160.00;4827867;29;20050;-59
2021/07/04 03:21:06;;;;;;;5.88;3.08;;;;;;;19.51;74.56;99163.59;4837397;29;20145;-59
2021/07/04 03:23:32;;;;;;;4.32;2.65;;;;;;;19.48;74.66;99156.75;4835435;29;20057;-59
2021/07/04 03:26:03;;;;;;;6.80;2.70;;;;;;;19.51;74.88;99169.72;4818873;29;20058;-59
2021/07/04 03:28:31;;;;;;;6.05;2.78;;;;;;;19.49;74.80;99173.44;4832683;29;20050;-59
2021/07/04 03:31:06;;;;;;;6.13;3.08;;;;;;;19.47;75.08;99173.53;4819819;29;20053;-58
2021/07/04 03:33:33;;;;;;;4.13;2.60;;;;;;;19.38;75.16;99167.16;4838742;29;20054;-59
2021/07/04 03:36:00;;;;;;;6.65;2.83;;;;;;;19.44;75.19;99174.63;4819349;29;20168;-59
2021/07/04 03:38:27;;;;;;;5.10;3.20;;;;;;;19.47;75.20;99178.81;4824564;29;20062;-61
2021/07/04 03:40:53;;;;;;;4.78;2.70;;;;;;;19.50;75.29;99175.09;4822020;29;20082;-57
2021/07/04 03:43:29;;;;;;;6.70;3.05;;;;;;;19.52;75.13;99179.31;4843646;29;20046;-59
2021/07/04 03:45:57;;;;;;;6.35;3.25;;;;;;;19.53;75.25;99186.25;4830250;29;20153;-58
2021/07/04 03:48:25;;;;;;;5.63;2.72;;;;;;;19.54;75.14;99181.81;4814944;29;20097;-58
2021/07/04 03:51:14;;;;;;;4.60;2.80;;;;;;;19.55;75.03;99189.59;4822096;29;20844;-59
2021/07/04 03:53:41;;;;;;;4.80;2.80;;;;;;;19.56;75.14;99182.53;4826856;29;20057;-60
2021/07/04 03:56:08;;;;;;;4.57;2.72;;;;;;;19.58;74.93;99186.72;4814493;29;20129;-58
2021/07/04 03:58:34;;;;;;;5.93;3.97;;;;;;;19.58;74.76;99186.72;5261568;24;20155;-61
2021/07/04 04:01:03;;;;;;;4.40;2.85;;;;;;;19.59;74.82;99192.84;4810679;29;20057;-58
2021/07/04 04:03:35;;;;;;;5.53;2.83;;;;;;;19.60;74.71;99198.00;4830400;29;20537;-58
2021/07/04 04:06:03;;;;;;;6.67;3.50;;;;;;;19.61;74.86;99201.47;4824395;29;20107;-57
2021/07/04 04:08:37;;;;;;;3.75;2.80;;;;;;;19.65;74.67;99200.25;4814812;29;20086;-58
2021/07/04 04:11:04;;;;;;;6.38;3.72;;;;;;;19.67;74.73;99201.00;4815191;29;20089;-57
2021/07/04 04:13:31;;;;;;;7.68;3.20;;;;;;;19.69;74.57;99204.31;4832293;29;20054;-57
2021/07/04 04:16:08;;;;;;;6.93;3.70;;;;;;;19.72;74.53;99207.59;4813388;29;20119;-56
2021/07/04 04:18:37;;;;;;;7.20;4.15;;;;;;;19.77;74.44;99209.84;4824924;29;20038;-57
2021/07/04 04:21:06;;;;;;;6.78;4.00;;;;;;;19.78;74.11;99214.16;4825196;29;20052;-58
2021/07/04 04:23:33;;;;;;;4.25;3.15;;;;;;;19.77;74.09;99215.97;4825064;29;20076;-58
2021/07/04 04:25:59;;;;;;;10.77;3.10;;;;;;;19.77;74.25;99217.75;4841324;29;20050;-58
2021/07/04 04:28:27;;;;;;;;;;;;;;;19.75;74.29;99228.44;4824938;29;20054;-57
2021/07/04 04:30:53;;;;;;;7.43;3.58;;;;;;;19.71;74.24;99219.09;4825227;29;19989;-58
2021/07/04 04:33:21;;;;;;;7.80;3.47;;;;;;;19.73;74.47;99226.88;4824797;29;20085;-58
2021/07/04 04:35:48;;;;;;;6.85;3.85;;;;;;;19.72;74.67;99226.03;4824540;29;20061;-57
2021/07/04 04:38:14;;;;;;;5.78;3.35;;;;;;;19.72;74.87;99226.03;4840645;29;20046;-58
2021/07/04 04:40:39;;;;;;;10.27;3.92;;;;;;;19.71;74.67;99234.91;4841348;29;20049;-59
2021/07/04 04:43:05;;;;;;;6.97;3.00;;;;;;;19.74;74.84;99233.81;4840869;29;20045;-58
2021/07/04 04:45:31;;;;;;;6.80;3.13;;;;;;;19.75;74.66;99235.50;4824840;29;20057;-58
2021/07/04 04:47:56;;;;;;;4.22;2.95;;;;;;;19.75;74.89;99238.13;4841375;29;20097;-57
2021/07/04 04:50:22;;;;;;;6.13;3.40;;;;;;;19.72;75.21;99233.13;4840982;29;20061;-58
2021/07/04 04:52:49;;;;;;;6.00;3.22;;;;;;;19.76;75.25;99243.31;4840802;29;20049;-58
2021/07/04 04:55:16;;;;;;;4.88;2.92;;;;;;;19.76;75.16;99237.19;4840695;29;20087;-57
2021/07/04 04:57:42;;;;;;;4.07;2.95;;;;;;;19.77;75.11;99242.34;4824748;29;20508;-58
2021/07/04 05:00:09;;;;;;;8.93;2.63;;;;;;;19.80;74.91;99244.72;4840620;29;20058;-58
2021/07/04 05:02:35;;;;;;;7.57;3.20;;;;;;;19.79;74.98;99243.03;4824421;29;20072;-58
2021/07/04 05:05:02;;;;;;;6.22;2.75;;;;;;;19.82;74.67;99245.47;4824914;29;20074;-59
2021/07/04 05:07:28;;;;;;;3.70;2.63;;;;;;;19.83;74.36;99252.41;4839816;29;20581;-57
2021/07/04 05:09:54;;;;;;;4.90;2.80;;;;;;;19.83;74.43;99246.31;4840405;29;20053;-58
2021/07/04 05:12:19;;;;;;;4.28;2.80;;;;;;;19.83;74.63;99246.31;4840160;29;20053;-58
2021/07/04 05:14:45;;;;;;;3.80;2.70;;;;;;;19.83;74.87;99247.16;4840675;29;20425;-57
2021/07/04 05:20:08;;;;;;;4.03;2.30;;;;;;;19.82;74.70;99253.38;4967096;24;20062;-58
2021/07/04 05:22:35;;;;;;;4.30;2.40;;;;;;;19.80;75.29;99254.44;4821933;29;20042;-58
2021/07/04 05:25:01;;;;;;;6.00;2.47;;;;;;;19.80;75.15;99250.00;4804219;29;20078;-57
2021/07/04 05:27:27;;;;;;;3.47;2.08;;;;;;;19.83;75.03;99252.41;4808645;29;20050;-58
2021/07/04 05:29:52;;;;;;;10.25;2.67;;;;;;;19.85;74.83;99261.03;4822176;29;20549;-57
2021/07/04 05:32:19;;;;;;;6.78;2.40;;;;;;;19.91;74.42;99257.06;4805775;29;20080;-57
2021/07/04 05:34:45;;;;;;;5.90;2.78;;;;;;;19.96;74.09;99248.78;4822350;29;20050;-57
2021/07/04 05:37:11;;;;;;;4.30;2.22;;;;;;;19.99;73.94;99252.03;4805391;29;20050;-58
2021/07/04 05:39:37;;;;;;;4.10;2.33;;;;;;;20.02;73.72;99246.50;4821801;29;20092;-58
2021/07/04 05:42:03;;;;;;;4.28;2.53;;;;;;;20.07;73.78;99252.25;4821849;29;20058;-58
2021/07/04 05:44:28;;;;;;;6.20;2.53;;;;;;;20.16;73.34;99248.03;4822273;29;20043;-58
2021/07/04 05:46:54;;;;;;;5.60;2.53;;;;;;;20.27;72.77;99254.13;4821828;29;20057;-57
2021/07/04 05:49:20;;;;;;;4.20;2.38;;;;;;;20.36;72.55;99249.09;4820462;29;20048;-58
2021/07/04 05:51:45;;;;;;;3.45;2.13;;;;;;;20.46;71.61;99250.03;4817715;29;20046;-58
2021/07/04 05:54:11;;;;;;;3.67;2.08;;;;;;;20.61;71.41;99246.13;4817849;29;20065;-57
2021/07/04 05:56:38;;;;;;;2.42;2.00;;;;;;;20.76;70.39;99255.41;4817311;29;20519;-57
2021/07/04 05:59:29;;;;;;;2.92;2.53;;;;;;;20.86;70.19;99255.50;5270574;24;20055;31
2021/07/04 06:01:54;;;;;;;3.45;1.90;;;;;;;20.88;69.29;99256.22;4749506;30;20064;-58
2021/07/04 06:04:20;;;;;;;4.97;2.42;;;;;;;20.92;68.70;99265.56;4734854;30;20071;-58
2021/07/04 06:06:46;;;;;;;5.80;2.22;;;;;;;20.94;68.59;99260.97;4750043;30;20401;-57
2021/07/04 06:09:11;;;;;;;3.35;2.20;;;;;;;20.95;68.64;99271.41;4750138;30;20048;-58
2021/07/04 06:11:37;;;;;;;7.53;2.05;;;;;;;20.98;68.68;99272.97;4747171;30;20055;-55
2021/07/04 06:14:03;;;;;;;2.65;2.00;;;;;;;21.03;68.04;99271.63;4752049;30;20049;-58
2021/07/04 06:16:28;;;;;;;5.25;2.10;;;;;;;21.08;67.79;99269.44;4745779;30;20056;-57
2021/07/04 06:18:54;;;;;;;6.78;2.40;;;;;;;21.12;67.53;99268.19;4737089;30;20059;-58
2021/07/04 06:21:20;;;;;;;4.53;2.10;;;;;;;21.18;67.07;99280.09;5253098;24;20067;-57
2021/07/04 06:23:45;;;;;;;5.90;2.40;;;;;;;21.25;67.23;99262.72;4796429;29;20076;-57
2021/07/04 06:26:11;;;;;;;6.22;2.20;;;;;;;21.34;66.75;99272.53;4800885;29;20042;-58
2021/07/04 06:28:39;;;;;;;3.95;2.10;;;;;;;21.40;66.39;99269.38;4799254;29;20078;-55
2021/07/04 06:31:12;;;;;;;5.07;2.28;;;;;;;21.40;66.19;99269.38;5254242;24;20048;31
2021/07/04 06:33:38;;;;;;;6.05;2.40;;;;;;;21.34;65.69;99267.25;4763506;29;20537;-57
2021/07/04 06:36:04;;;;;;;8.35;2.03;;;;;;;21.26;66.05;99279.44;4770639;29;20048;-57
2021/07/04 06:38:29;;;;;;;4.72;1.58;;;;;;;21.16;65.98;99266.16;4767243;30;20043;-57
2021/07/04 06:40:55;;;;;;;5.03;2.13;;;;;;;21.22;65.74;99272.75;4765747;29;20140;-58
2021/07/04 06:43:20;;;;;;;3.35;2.08;;;;;;;21.27;65.69;99273.19;5286377;24;20130;-61
2021/07/04 06:45:52;;;;;;;3.15;2.08;;;;;;;21.33;65.43;99272.66;4822165;29;20125;-58
2021/07/04 06:48:18;;;;;;;6.07;2.85;;;;;;;21.38;65.13;99276.59;4839221;29;20050;-58
2021/07/04 06:50:44;;;;;;;5.65;2.08;;;;;;;21.48;64.92;99277.50;4839269;29;20542;-58
2021/07/04 06:53:09;;;;;;;4.85;2.15;;;;;;;21.58;64.50;99274.03;4834826;29;20043;-57
2021/07/04 06:55:35;;;;;;;4.57;2.05;;;;;;;21.66;63.64;99277.72;4822764;29;20077;-58
2021/07/04 06:58:01;;;;;;;2.80;1.80;;;;;;;21.71;63.67;99279.97;4823096;29;20112;-59
2021/07/04 07:00:27;;;;;;;5.28;2.50;;;;;;;21.81;63.91;99267.59;4808145;29;20133;-58
2021/07/04 07:02:53;;;;;;;2.88;1.92;;;;;;;22.00;62.92;99274.78;4817267;29;20129;-58
2021/07/04 07:05:19;;;;;;;3.67;1.92;;;;;;;22.18;61.53;99271.38;4824708;29;20066;-59
2021/07/04 07:07:45;;;;;;;4.05;2.60;;;;;;;22.32;60.87;99273.63;4825143;29;20045;-59
2021/07/04 07:10:12;;;;;;;2.85;1.60;;;;;;;22.40;60.43;99273.78;4825785;29;20080;-58
2021/07/04 07:15:37;;;;;;;4.63;2.00;;;;;;;22.59;59.72;99272.13;4837238;24;20058;-59
2021/07/04 07:18:03;;;;;;;7.55;2.10;;;;;;;22.68;59.31;99266.81;4845885;29;20517;-59
2021/07/04 07:20:30;;;;;;;1.92;1.48;;;;;;;22.98;58.66;99275.63;4838640;29;20489;-57
2021/07/04 07:22:55;;;;;;;2.42;1.65;;;;;;;23.12;57.66;99272.56;4846518;29;20053;-58
2021/07/04 07:25:31;;;;;;;3.60;2.55;;;;;;;23.14;56.90;99273.22;5281851;24;20144;-57
2021/07/04 07:27:58;;;;;;;4.45;1.75;;;;;;;23.12;56.92;99268.09;4802051;29;20141;-60
2021/07/04 07:30:24;;;;;;;4.97;1.55;;;;;;;23.13;56.81;99268.94;4802504;29;20145;-59
2021/07/04 07:32:51;;;;;;;6.13;2.33;;;;;;;23.08;57.39;99264.03;4801750;29;20047;-58
2021/07/04 07:35:20;;;;;;;4.07;1.67;;;;;;;23.06;57.47;99262.50;5261710;23;20279;-60
2021/07/04 07:37:50;;;;;;;2.50;1.60;;;;;;;23.01;57.40;99256.81;4797962;29;20533;-59
2021/07/04 07:40:17;;;;;;;2.40;1.17;;;;;;;22.91;57.40;99258.63;4805566;29;20086;-60
2021/07/04 07:42:51;;;;;;;2.58;1.30;;;;;;;22.94;57.18;99268.94;4816483;29;20107;-58
2021/07/04 07:45:17;;;;;;;5.10;1.67;;;;;;;23.18;56.35;99264.03;4789574;29;20587;-60
2021/07/04 07:47:47;;;;;;;5.22;1.90;;;;;;;23.31;55.82;99259.25;4789197;29;20054;-59
2021/07/04 07:50:13;;;;;;;5.88;1.80;;;;;;;23.28;55.84;99251.59;4805588;29;20099;-60
2021/07/04 07:52:39;;;;;;;4.40;2.22;;;;;;;23.44;55.47;99258.94;4805394;29;20042;-60
2021/07/04 07:55:06;;;;;;;5.63;2.10;;;;;;;23.90;54.93;99252.78;4805840;29;20109;-59
2021/07/04 07:57:36;;;;;;;4.57;1.35;;;;;;;24.29;52.74;99248.91;4789573;29;20047;-59
2021/07/04 08:00:04;;;;;;;3.67;1.40;;;;;;;24.46;52.04;99248.09;4802165;29;20376;-58
2021/07/04 08:02:41;;;;;;;5.78;1.70;;;;;;;24.56;51.74;99248.03;4796610;29;20426;-58
2021/07/04 08:05:09;;;;;;;5.20;1.50;;;;;;;24.60;51.30;99246.72;4779270;29;20051;-59
2021/07/04 08:07:42;;;;;;;7.90;1.85;;;;;;;24.59;51.51;99252.22;4798639;29;20054;-59
2021/07/04 08:10:08;;;;;;;11.63;2.13;;;;;;;24.46;52.27;99247.28;4800873;29;20717;-57
2021/07/04 08:12:35;;;;;;;5.60;1.50;;;;;;;24.36;52.05;99242.03;4798015;29;20047;-58
2021/07/04 08:15:02;;;;;;;4.30;1.45;;;;;;;24.28;51.57;99243.78;4799756;29;20050;-59
2021/07/04 08:17:28;;;;;;;3.60;1.60;;;;;;;24.11;52.16;99248.03;4777973;29;20080;-59
2021/07/04 08:19:53;;;;;;;4.18;1.60;;;;;;;24.02;52.56;99249.75;4790005;29;20047;-59
2021/07/04 08:22:19;;;;;;;7.15;1.60;;;;;;;23.94;53.53;99252.31;4795490;29;20051;-58
2021/07/04 08:24:45;;;;;;;3.00;1.52;;;;;;;23.96;53.22;99253.03;4787381;29;20055;-59
2021/07/04 08:27:10;;;;;;;2.58;1.58;;;;;;;23.94;53.92;99252.31;4793237;29;20099;-58
2021/07/04 08:29:37;;;;;;;4.65;1.50;;;;;;;23.91;53.81;99259.75;4799762;29;20051;-55
2021/07/04 08:32:03;;;;;;;5.20;1.50;;;;;;;23.84;53.67;99256.84;4798648;29;20039;-57
2021/07/04 08:34:29;;;;;;;8.88;4.88;;;;;;;23.70;53.79;99251.19;4798693;29;20111;-58
2021/07/04 08:36:54;;;;;;;3.78;1.83;;;;;;;23.53;54.40;99260.75;5269419;24;20066;-59
2021/07/04 08:39:20;;;;;;;3.05;1.50;;;;;;;23.42;54.76;99255.59;4818380;29;20077;-58
2021/07/04 08:41:45;;;;;;;5.60;1.98;;;;;;;23.41;54.74;99262.72;4816929;29;20540;-59
2021/07/04 08:44:11;;;;;;;6.82;2.03;;;;;;;23.41;54.66;99261.88;4820165;29;20129;-58
2021/07/04 08:46:44;;;;;;;4.70;2.30;;;;;;;23.42;54.56;99256.44;4816727;29;20051;-58
2021/07/04 08:49:12;;;;;;;3.30;2.10;;;;;;;23.48;54.37;99258.53;4822392;29;20049;-58
2021/07/04 08:51:38;;;;;;;3.42;2.15;;;;;;;23.64;54.63;99252.63;4805719;29;20426;-59
2021/07/04 08:54:03;;;;;;;4.15;2.55;;;;;;;23.70;54.56;99254.69;4818965;29;20070;-59
2021/07/04 08:56:29;;;;;;;5.50;2.30;;;;;;;23.82;53.98;99257.97;4804338;29;20038;-59
2021/07/04 08:58:55;;;;;;;6.53;2.15;;;;;;;23.93;53.61;99247.16;4804873;29;20100;-58
2021/07/04 09:01:22;;;;;;;11.48;4.93;;;;;;;24.04;53.33;99254.94;4804517;29;20129;-59
2021/07/04 09:03:53;;;;;;;8.73;3.95;;;;;;;24.07;53.86;99244.03;4804395;29;20039;-58
2021/07/04 09:09:26;;;;;;;8.10;2.63;;;;;;;23.95;54.79;99251.34;5030789;24;20058;-57
2021/07/04 09:12:04;;;;;;;5.72;3.17;;;;;;;23.81;54.98;99245.69;4822444;29;20050;-60
2021/07/04 09:14:30;;;;;;;5.32;2.08;;;;;;;23.77;54.88;99250.44;4822797;29;20046;-58
2021/07/04 09:16:56;;;;;;;7.38;1.90;;;;;;;23.74;55.17;99257.88;4822119;29;20071;-62
2021/07/04 09:19:22;;;;;;;7.03;2.00;;;;;;;23.66;55.70;99253.28;4821238;29;20039;-60
2021/07/04 09:22:00;;;;;;;4.65;3.00;;;;;;;23.67;55.60;99256.78;4813863;29;20063;-60
2021/07/04 09:24:28;;;;;;;6.68;2.65;;;;;;;23.65;55.40;99243.69;4814549;29;20050;-58
2021/07/04 09:26:54;;;;;;;1.92;1.58;;;;;;;23.64;55.06;99255.28;4810030;29;20053;-60
2021/07/04 09:29:43;;;;;;;8.20;3.53;;;;;;;23.61;55.41;99252.88;4803987;29;20047;-59
2021/07/04 09:32:20;;;;;;;6.63;2.55;;;;;;;23.58;55.56;99246.06;4803944;29;20035;-59
2021/07/04 09:35:10;;;;;;;6.70;2.67;;;;;;;23.81;55.11;99257.16;4803813;29;20107;-59
2021/07/04 09:37:46;;;;;;;52.67;12.77;;;;;;;23.96;55.65;99255.69;4806884;29;20425;-60
2021/07/04 09:40:20;;;;;;;80.70;20.08;;;;;;;23.92;55.79;99248.97;4804171;29;20112;-59
2021/07/04 09:42:58;;;;;;;47.13;14.07;;;;;;;23.83;56.47;99249.03;4812125;29;20054;-59
2021/07/04 09:45:52;;;;;;;10.13;2.97;;;;;;;24.03;55.25;99243.47;4822003;29;20590;-59
2021/07/04 09:48:38;;;;;;;8.02;3.25;;;;;;;24.46;54.62;99240.13;4815939;29;20053;-59
2021/07/04 09:51:14;;;;;;;7.38;3.20;;;;;;;24.54;54.30;99235.91;4803927;29;20075;-60
2021/07/04 09:53:44;;;;;;;4.85;2.22;;;;;;;24.47;53.62;99231.19;4805071;29;20068;-58
2021/07/04 09:56:22;;;;;;;5.70;2.80;;;;;;;24.45;54.12;99242.94;4810007;29;20423;-59
2021/07/04 09:58:59;;;;;;;5.25;2.25;;;;;;;24.24;54.68;99245.88;4809608;29;20062;-58
2021/07/04 10:01:40;;;;;;;4.68;2.55;;;;;;;24.06;55.60;99245.84;4816765;29;20107;-57
2021/07/04 10:04:09;;;;;;;7.57;2.35;;;;;;;23.95;56.49;99248.69;4819095;29;20057;-58
2021/07/04 10:06:46;;;;;;;3.70;2.45;;;;;;;23.98;56.43;99244.88;4801500;29;20046;-59
2021/07/04 10:09:12;;;;;;;13.25;3.42;;;;;;;24.30;55.82;99231.16;4822013;29;20051;-58
2021/07/04 10:11:37;;;;;;;7.75;3.03;;;;;;;25.02;54.16;99232.84;4801463;29;20046;-57
2021/07/04 10:14:03;;;;;;;6.68;2.50;;;;;;;25.30;52.64;99237.84;4826043;29;20065;-59
2021/07/04 10:16:29;;;;;;;4.78;2.20;;;;;;;25.22;53.44;99245.78;4819519;29;20046;-59
2021/07/04 10:18:56;;;;;;;5.93;3.35;;;;;;;25.43;52.46;99245.41;4818621;29;20043;-59
2021/07/04 10:21:22;;;;;;;3.53;2.15;;;;;;;25.73;51.46;99241.44;4806427;29;20042;-59
2021/07/04 10:23:50;;;;;;;4.85;2.10;;;;;;;25.76;50.83;99242.94;4811516;29;20514;-57
2021/07/04 10:26:17;;;;;;;6.50;2.17;;;;;;;25.56;51.57;99242.34;4827610;29;20053;-54
2021/07/04 10:28:43;;;;;;;7.03;2.60;;;;;;;25.23;52.69;99236.78;4827753;29;20050;-58
2021/07/04 10:31:13;;;;;;;9.32;3.28;;;;;;;25.08;53.19;99237.50;4793379;29;20065;-60
2021/07/04 10:33:39;;;;;;;8.43;3.10;;;;;;;25.00;53.43;99243.63;4811379;29;20058;-60
2021/07/04 10:36:08;;;;;;;6.38;2.40;;;;;;;24.80;53.97;99234.13;4827351;29;20050;-60
2021/07/04 10:38:54;;;;;;;6.60;3.08;;;;;;;24.63;55.10;99245.59;4827124;29;20050;-62
2021/07/04 10:41:33;;;;;;;4.32;2.67;;;;;;;24.59;55.56;99253.06;4819704;29;20050;-60
2021/07/04 10:44:08;;;;;;;6.60;2.60;;;;;;;24.58;55.11;99247.88;4820577;29;20061;-62
2021/07/04 10:46:49;;;;;;;5.97;2.30;;;;;;;24.64;55.41;99242.81;4819773;29;20050;-59
2021/07/04 10:49:23;;;;;;;8.38;2.60;;;;;;;24.67;55.51;99252.28;4818663;29;20053;-59
2021/07/04 10:51:53;;;;;;;8.38;3.22;;;;;;;24.63;55.97;99245.59;4818849;29;20137;-58
2021/07/04 10:54:43;;;;;;;5.40;3.08;;;;;;;24.57;56.15;99252.38;4796073;29;20518;-59
2021/07/04 10:57:14;;;;;;;3.13;2.10;;;;;;;24.60;56.46;99253.91;4823655;29;20552;-59
2021/07/04 10:59:51;;;;;;;7.10;2.60;;;;;;;24.52;56.25;99252.00;4827610;29;20046;-61
2021/07/04 11:02:56;;;;;;;6.78;3.10;;;;;;;24.38;57.03;99256.03;4834571;29;20136;-58
2021/07/04 11:05:33;;;;;;;4.53;2.08;;;;;;;24.29;56.37;99250.75;4833143;29;20442;-60
2021/07/04 11:07:59;;;;;;;5.03;2.40;;;;;;;24.30;56.24;99255.91;4811349;29;20547;-61
2021/07/04 11:10:29;;;;;;;4.97;2.28;;;;;;;24.41;56.92;99253.03;4824208;29;20076;-61
2021/07/04 11:13:16;;;;;;;3.65;2.50;;;;;;;24.48;56.76;99259.44;4824328;29;20164;-59
2021/07/04 11:15:43;;;;;;;4.63;3.40;;;;;;;24.61;56.62;99256.38;4814445;29;20136;-60
2021/07/04 11:18:13;;;;;;;3.88;2.88;;;;;;;24.68;56.56;99252.13;4841487;29;20072;-59
2021/07/04 11:20:38;;;;;;;3.78;2.50;;;;;;;24.72;56.58;99247.34;4834043;29;20049;-60
2021/07/04 11:23:11;;;;;;;3.53;2.40;;;;;;;24.73;57.13;99243.69;4821719;29;20046;-60
2021/07/04 11:25:38;;;;;;;10.27;3.40;;;;;;;24.69;57.70;99250.31;4791103;29;20042;-59
2021/07/04 11:28:23;;;;;;;18.52;5.82;;;;;;;24.53;58.40;99250.16;4791862;29;20422;-59
2021/07/04 11:30:50;;;;;;;10.52;3.42;;;;;;;24.37;58.90;99250.84;4805108;29;20087;-59
2021/07/04 11:33:56;;;;;;;6.93;3.47;;;;;;;24.27;59.39;99247.41;4806054;29;20374;-60
2021/07/04 11:36:14;;;;;;;6.45;3.70;;;;;;;24.41;58.95;99245.06;4815480;29;20069;-60
2021/07/04 11:38:48;;;;;;;309.45;44.15;;;;;;;24.69;58.30;99247.66;5240991;24;20062;-59
2021/07/04 11:41:24;;;;;;;31.83;5.95;;;;;;;24.98;57.31;99240.28;4810054;29;20553;-59
2021/07/04 11:43:51;;;;;;;8.98;3.08;;;;;;;25.18;56.07;99244.41;4816763;29;20077;-58
2021/07/04 11:46:20;;;;;;;5.60;3.72;;;;;;;25.22;55.63;99243.13;4818624;29;20038;-60
2021/07/04 11:48:47;;;;;;;5.63;3.20;;;;;;;25.09;55.99;99240.03;4814270;29;20565;-59
2021/07/04 11:51:25;;;;;;;10.00;3.10;;;;;;;24.92;56.35;99246.22;4818373;29;20051;-58